createdAt,value
2023-03-10T00:01:11.229Z,0.63
2023-03-10T00:03:38.876Z,1.67
2023-03-10T00:06:07.326Z,1.53
2023-03-10T00:08:36.464Z,0.87
2023-03-10T00:11:04.343Z,1.03
2023-03-10T00:13:32.001Z,1.07
2023-03-10T00:15:59.846Z,0.90
2023-03-10T00:18:27.620Z,0.70
2023-03-10T00:20:55.861Z,1.20
2023-03-10T00:23:23.983Z,0.60
2023-03-10T00:26:00.648Z,0.70
2023-03-10T00:28:28.811Z,1.20
2023-03-10T00:31:01.252Z,0.63
2023-03-10T00:33:29.217Z,0.50
2023-03-10T00:36:07.496Z,1.13
2023-03-10T00:38:35.532Z,1.37
2023-03-10T00:41:07.172Z,0.73
2023-03-10T00:43:35.940Z,0.50
2023-03-10T00:46:03.953Z,1.00
2023-03-10T00:48:32.543Z,0.83
2023-03-10T00:51:01.221Z,1.23
2023-03-10T00:53:29.658Z,0.60
2023-03-10T00:56:02.471Z,0.70
2023-03-10T00:58:32.884Z,0.77
2023-03-10T01:01:01.556Z,0.43
2023-03-10T01:03:30.754Z,0.50
2023-03-10T01:05:58.471Z,1.70
2023-03-10T01:08:26.085Z,1.07
2023-03-10T01:10:53.745Z,1.17
2023-03-10T01:13:21.480Z,0.80
2023-03-10T01:15:51.079Z,1.00
2023-03-10T01:18:21.148Z,1.17
2023-03-10T01:20:49.541Z,0.80
2023-03-10T01:23:20.630Z,0.80
2023-03-10T01:25:48.947Z,0.60
2023-03-10T01:28:17.636Z,1.37
2023-03-10T01:30:46.022Z,0.90
2023-03-10T01:33:16.070Z,0.60
2023-03-10T01:35:44.286Z,0.73
2023-03-10T01:38:12.106Z,1.40
2023-03-10T01:40:40.155Z,0.50
2023-03-10T01:43:28.316Z,0.70
2023-03-10T01:46:42.580Z,0.90
2023-03-10T01:49:25.424Z,0.87
2023-03-10T01:51:59.385Z,0.60
2023-03-10T01:54:31.783Z,0.83
2023-03-10T01:56:59.953Z,0.73
2023-03-10T01:59:28.693Z,0.70
2023-03-10T02:01:57.843Z,0.50
2023-03-10T02:04:34.637Z,1.70
2023-03-10T02:07:05.185Z,1.07
2023-03-10T02:09:38.189Z,0.53
2023-03-10T02:12:08.537Z,0.70
2023-03-10T02:14:36.621Z,0.70
2023-03-10T02:17:05.761Z,1.33
2023-03-10T02:19:48.953Z,0.60
2023-03-10T02:22:17.272Z,0.43
2023-03-10T02:24:51.076Z,0.97
2023-03-10T02:27:22.852Z,1.70
2023-03-10T02:29:59.683Z,0.70
2023-03-10T02:32:29.625Z,0.50
2023-03-10T02:34:57.528Z,0.50
2023-03-10T02:37:28.284Z,1.03
2023-03-10T02:39:55.942Z,1.80
2023-03-10T02:42:27.967Z,0.60
2023-03-10T02:44:56.549Z,0.67
2023-03-10T02:47:24.373Z,0.50
2023-03-10T02:49:52.007Z,0.70
2023-03-10T02:52:28.995Z,0.40
2023-03-10T02:54:56.583Z,1.20
2023-03-10T02:57:25.496Z,0.60
2023-03-10T02:59:53.133Z,1.00
2023-03-10T03:02:20.766Z,0.50
2023-03-10T03:04:48.356Z,0.60
2023-03-10T03:07:16.035Z,0.70
2023-03-10T03:09:43.641Z,0.50
2023-03-10T03:12:11.224Z,0.50
2023-03-10T03:14:40.208Z,0.87
2023-03-10T03:17:07.803Z,0.60
2023-03-10T03:19:35.398Z,0.80
2023-03-10T03:22:03.034Z,0.57
2023-03-10T03:24:32.059Z,0.80
2023-03-10T03:26:59.975Z,0.57
2023-03-10T03:29:27.602Z,0.43
2023-03-10T03:31:56.627Z,0.90
2023-03-10T03:34:24.204Z,0.90
2023-03-10T03:36:52.088Z,0.40
2023-03-10T03:39:19.679Z,0.57
2023-03-10T03:41:48.463Z,0.73
2023-03-10T03:44:16.054Z,0.43
2023-03-10T03:46:43.635Z,0.63
2023-03-10T03:49:12.541Z,0.57
2023-03-10T03:51:40.294Z,0.50
2023-03-10T03:54:07.930Z,0.47
2023-03-10T03:56:35.542Z,0.43
2023-03-10T03:59:03.178Z,0.50
2023-03-10T04:01:30.781Z,0.57
2023-03-10T04:03:58.378Z,0.77
2023-03-10T04:06:27.534Z,0.60
2023-03-10T04:08:55.137Z,0.60
2023-03-10T04:11:22.714Z,0.50
2023-03-10T04:13:50.350Z,0.50
2023-03-10T04:16:17.946Z,0.60
2023-03-10T04:18:45.750Z,0.50
2023-03-10T04:21:13.538Z,0.77
2023-03-10T04:23:43.743Z,0.40
2023-03-10T04:26:11.897Z,0.73
2023-03-10T04:28:39.523Z,0.50
2023-03-10T04:31:14.097Z,0.70
2023-03-10T04:33:41.748Z,0.50
2023-03-10T04:36:09.694Z,1.43
2023-03-10T04:38:37.602Z,0.73
2023-03-10T04:41:06.820Z,0.40
2023-03-10T04:43:34.471Z,0.50
2023-03-10T04:46:02.535Z,0.70
2023-03-10T04:48:30.435Z,1.00
2023-03-10T04:50:58.611Z,0.97
2023-03-10T04:53:26.293Z,1.17
2023-03-10T04:55:54.080Z,0.37
2023-03-10T04:58:24.193Z,0.50
2023-03-10T05:01:02.507Z,0.40
2023-03-10T05:03:31.002Z,0.57
2023-03-10T05:05:59.087Z,0.57
2023-03-10T05:08:26.842Z,0.70
2023-03-10T05:10:54.468Z,0.80
2023-03-10T05:13:23.459Z,0.73
2023-03-10T05:15:51.110Z,0.50
2023-03-10T05:18:19.571Z,0.40
2023-03-10T05:20:53.600Z,1.20
2023-03-10T05:23:21.285Z,0.57
2023-03-10T05:25:49.087Z,0.93
2023-03-10T05:28:17.234Z,0.47
2023-03-10T05:30:46.294Z,0.50
2023-03-10T05:33:13.888Z,0.73
2023-03-10T05:35:41.674Z,0.40
2023-03-10T05:38:09.305Z,0.53
2023-03-10T05:40:37.028Z,1.13
2023-03-10T05:43:04.614Z,0.70
2023-03-10T05:45:32.210Z,0.53
2023-03-10T05:48:01.528Z,0.50
2023-03-10T05:50:29.495Z,0.57
2023-03-10T05:52:57.305Z,0.47
2023-03-10T05:55:25.115Z,0.47
2023-03-10T05:57:52.808Z,0.43
2023-03-10T06:00:21.323Z,0.93
2023-03-10T06:02:49.030Z,0.40
2023-03-10T06:05:18.167Z,0.40
2023-03-10T06:07:45.778Z,1.00
2023-03-10T06:10:13.432Z,0.60
2023-03-10T06:12:41.093Z,0.53
2023-03-10T06:15:09.715Z,0.40
2023-03-10T06:17:37.333Z,0.60
2023-03-10T06:20:05.627Z,0.70
2023-03-10T06:22:34.552Z,0.53
2023-03-10T06:25:02.285Z,0.50
2023-03-10T06:27:30.908Z,0.37
2023-03-10T06:29:58.522Z,1.23
2023-03-10T06:32:26.524Z,0.40
2023-03-10T06:34:54.151Z,0.50
2023-03-10T06:37:21.958Z,0.47
2023-03-10T06:39:50.986Z,0.60
2023-03-10T06:42:18.547Z,0.70
2023-03-10T06:44:49.115Z,0.63
2023-03-10T06:47:16.876Z,0.70
2023-03-10T06:49:44.470Z,0.50
2023-03-10T06:52:12.061Z,0.47
2023-03-10T06:54:39.704Z,0.50
2023-03-10T06:57:08.686Z,0.87
2023-03-10T06:59:36.299Z,0.57
2023-03-10T07:02:03.970Z,0.50
2023-03-10T07:04:31.587Z,0.40
2023-03-10T07:06:59.278Z,0.40
2023-03-10T07:09:26.961Z,0.47
2023-03-10T07:11:54.522Z,0.30
2023-03-10T07:14:23.484Z,0.40
2023-03-10T07:16:51.192Z,0.30
2023-03-10T07:19:18.792Z,0.47
2023-03-10T07:21:46.418Z,0.90
2023-03-10T07:24:14.063Z,0.70
2023-03-10T07:26:41.747Z,0.40
2023-03-10T07:29:09.580Z,0.40
2023-03-10T07:31:38.547Z,0.30
2023-03-10T07:34:06.108Z,0.40
2023-03-10T07:36:33.767Z,0.60
2023-03-10T07:39:01.322Z,0.60
2023-03-10T07:41:29.030Z,0.97
2023-03-10T07:43:57.031Z,0.60
2023-03-10T07:46:24.718Z,0.50
2023-03-10T07:48:53.870Z,0.47
2023-03-10T07:51:21.555Z,0.30
2023-03-10T07:53:49.170Z,0.70
2023-03-10T07:56:17.160Z,0.47
2023-03-10T07:58:44.902Z,0.50
2023-03-10T08:01:16.985Z,0.80
2023-03-10T08:03:44.889Z,0.87
2023-03-10T08:06:19.580Z,0.50
2023-03-10T08:08:47.586Z,0.50
2023-03-10T08:11:15.271Z,0.53
2023-03-10T08:13:45.303Z,0.50
2023-03-10T08:16:13.184Z,0.70
2023-03-10T08:18:40.817Z,0.33
2023-03-10T08:21:09.056Z,1.13
2023-03-10T08:23:39.375Z,0.97
2023-03-10T08:26:09.174Z,0.40
2023-03-10T08:28:38.897Z,0.60
2023-03-10T08:31:11.189Z,0.50
2023-03-10T08:33:39.883Z,0.37
2023-03-10T08:36:09.815Z,0.50
2023-03-10T08:38:38.979Z,0.47
2023-03-10T08:41:11.666Z,0.40
2023-03-10T08:43:40.157Z,0.47
2023-03-10T08:46:09.043Z,0.67
2023-03-10T08:48:37.045Z,0.40
2023-03-10T08:51:05.379Z,0.30
2023-03-10T08:53:33.964Z,0.40
2023-03-10T08:56:03.064Z,1.13
2023-03-10T08:58:30.723Z,0.53
2023-03-10T09:00:58.469Z,0.50
2023-03-10T09:03:29.503Z,0.50
2023-03-10T09:05:58.918Z,0.50
2023-03-10T09:08:27.794Z,0.30
2023-03-10T09:10:56.470Z,0.57
2023-03-10T09:13:25.498Z,0.40
2023-03-10T09:15:53.374Z,0.87
2023-03-10T09:18:21.631Z,0.70
2023-03-10T09:20:49.540Z,0.37
2023-03-10T09:23:17.998Z,0.50
2023-03-10T09:25:45.690Z,0.40
2023-03-10T09:28:13.348Z,0.60
2023-03-10T09:30:43.288Z,0.77
2023-03-10T09:33:17.133Z,0.30
2023-03-10T09:35:52.837Z,0.60
2023-03-10T09:38:25.461Z,0.83
2023-03-10T09:41:11.593Z,0.40
2023-03-10T09:43:42.112Z,0.87
2023-03-10T09:46:21.421Z,0.40
2023-03-10T09:48:54.159Z,0.80
2023-03-10T09:51:24.032Z,1.27
2023-03-10T09:54:01.430Z,0.37
2023-03-10T09:56:33.240Z,0.63
2023-03-10T09:59:07.394Z,0.47
2023-03-10T10:01:37.487Z,0.60
2023-03-10T10:04:10.623Z,0.50
2023-03-10T10:06:42.305Z,0.37
2023-03-10T10:09:18.243Z,0.43
2023-03-10T10:11:45.885Z,0.80
2023-03-10T10:14:27.757Z,0.40
2023-03-10T10:17:03.803Z,0.83
2023-03-10T10:19:33.798Z,0.53
2023-03-10T10:22:08.566Z,0.50
2023-03-10T10:24:36.201Z,0.37
2023-03-10T10:27:03.828Z,0.53
2023-03-10T10:29:37.060Z,0.77
2023-03-10T10:32:11.645Z,0.40
2023-03-10T10:34:40.900Z,0.40
2023-03-10T10:37:29.782Z,0.80
2023-03-10T10:39:58.942Z,0.70
2023-03-10T10:42:28.234Z,0.83
2023-03-10T10:44:57.873Z,0.50
2023-03-10T10:47:30.194Z,1.00
2023-03-10T10:50:18.440Z,0.40
2023-03-10T10:52:48.900Z,0.60
2023-03-10T10:55:29.737Z,0.97
2023-03-10T10:58:01.487Z,0.30
2023-03-10T11:00:33.137Z,0.40
2023-03-10T11:03:02.393Z,0.57
2023-03-10T11:05:34.337Z,0.70
2023-03-10T11:08:18.932Z,0.50
2023-03-10T11:10:54.286Z,1.03
2023-03-10T11:13:27.638Z,0.40
2023-03-10T11:16:02.593Z,0.60
2023-03-10T11:18:37.526Z,0.40
2023-03-10T11:21:13.102Z,0.50
2023-03-10T11:23:46.398Z,0.40
2023-03-10T11:26:24.771Z,0.63
2023-03-10T11:28:57.865Z,0.40
2023-03-10T11:31:37.329Z,0.60
2023-03-10T11:34:19.643Z,0.57
2023-03-10T11:36:56.577Z,0.67
2023-03-10T11:39:34.979Z,0.43
2023-03-10T11:42:12.101Z,0.73
2023-03-10T11:44:44.053Z,0.40
2023-03-10T11:47:21.796Z,2.20
2023-03-10T11:49:59.383Z,0.40
2023-03-10T11:52:29.515Z,0.40
2023-03-10T11:55:05.692Z,0.43
2023-03-10T11:57:40.599Z,0.30
2023-03-10T12:00:19.440Z,0.40
2023-03-10T12:02:57.982Z,0.30
2023-03-10T12:05:27.989Z,1.10
2023-03-10T12:08:01.538Z,1.10
2023-03-10T12:10:31.357Z,0.30
2023-03-10T12:13:00.790Z,0.40
2023-03-10T12:15:36.032Z,0.50
2023-03-10T12:18:05.324Z,0.47
2023-03-10T12:20:35.466Z,0.80
2023-03-10T12:23:40.526Z,0.77
2023-03-10T12:26:08.645Z,0.43
2023-03-10T12:28:36.393Z,0.30
2023-03-10T12:31:06.406Z,0.30
2023-03-10T12:34:09.041Z,1.07
2023-03-10T12:36:40.443Z,0.40
2023-03-10T12:39:33.001Z,0.40
2023-03-10T12:42:02.530Z,0.57
2023-03-10T12:44:37.867Z,0.50
2023-03-10T12:47:30.475Z,0.60
2023-03-10T12:50:04.261Z,0.40
2023-03-10T12:52:48.045Z,0.47
2023-03-10T12:55:19.000Z,0.67
2023-03-10T12:57:55.101Z,0.70
2023-03-10T13:00:31.532Z,0.50
2023-03-10T13:03:05.088Z,0.40
2023-03-10T13:05:35.287Z,0.50
2023-03-10T13:08:14.486Z,0.60
2023-03-10T13:10:42.586Z,0.57
2023-03-10T13:13:17.904Z,0.40
2023-03-10T13:15:57.768Z,0.30
2023-03-10T13:18:25.417Z,0.40
2023-03-10T13:20:53.070Z,0.30
2023-03-10T13:23:24.957Z,0.50
2023-03-10T13:25:57.540Z,0.40
2023-03-10T13:28:26.582Z,0.43
2023-03-10T13:31:19.246Z,0.73
2023-03-10T13:33:53.669Z,0.60
2023-03-10T13:36:24.059Z,0.77
2023-03-10T13:38:53.257Z,0.53
2023-03-10T13:41:20.868Z,0.40
2023-03-10T13:43:49.816Z,0.40
2023-03-10T13:46:20.095Z,0.43
2023-03-10T13:48:48.738Z,0.30
2023-03-10T13:51:19.734Z,0.40
2023-03-10T13:53:49.810Z,0.73
2023-03-10T13:56:24.211Z,0.73
2023-03-10T13:58:54.147Z,0.73
2023-03-10T14:01:24.949Z,0.30
2023-03-10T14:03:54.829Z,0.30
2023-03-10T14:06:22.882Z,0.40
2023-03-10T14:08:51.379Z,0.40
2023-03-10T14:11:33.559Z,0.67
2023-03-10T14:14:02.268Z,0.30
2023-03-10T14:16:53.074Z,0.40
2023-03-10T14:19:51.723Z,0.40
2023-03-10T14:22:24.209Z,0.60
2023-03-10T14:24:51.994Z,0.33
2023-03-10T14:27:21.424Z,0.50
2023-03-10T14:29:51.180Z,0.50
2023-03-10T14:32:19.470Z,0.50
2023-03-10T14:34:47.471Z,0.30
2023-03-10T14:37:15.517Z,0.50
2023-03-10T14:39:43.124Z,0.40
2023-03-10T14:42:20.081Z,0.47
2023-03-10T14:44:50.329Z,0.40
2023-03-10T14:47:18.908Z,0.30
2023-03-10T14:49:47.173Z,0.40
2023-03-10T14:52:17.170Z,0.20
2023-03-10T14:54:45.083Z,0.30
2023-03-10T14:57:15.933Z,0.30
2023-03-10T14:59:43.569Z,0.50
2023-03-10T15:02:19.778Z,0.40
2023-03-10T15:04:47.445Z,0.97
2023-03-10T15:07:15.664Z,0.40
2023-03-10T15:09:43.311Z,0.37
2023-03-10T15:12:11.203Z,0.50
2023-03-10T15:14:38.811Z,0.30
2023-03-10T15:17:06.479Z,0.30
2023-03-10T15:19:35.878Z,0.20
2023-03-10T15:22:03.453Z,0.30
2023-03-10T15:24:31.052Z,0.30
2023-03-10T15:26:58.686Z,0.37
2023-03-10T15:29:26.269Z,0.67
2023-03-10T15:31:53.923Z,0.30
2023-03-10T15:34:21.504Z,0.20
2023-03-10T15:36:50.733Z,0.20
2023-03-10T15:39:30.660Z,0.40
2023-03-10T15:41:58.986Z,0.30
2023-03-10T15:44:26.926Z,0.20
2023-03-10T15:46:55.860Z,0.57
2023-03-10T15:49:23.974Z,0.23
2023-03-10T15:51:52.947Z,0.27
2023-03-10T15:54:20.565Z,0.47
2023-03-10T15:56:48.182Z,0.30
2023-03-10T15:59:16.115Z,0.30
2023-03-10T16:01:43.776Z,0.30
2023-03-10T16:04:11.474Z,0.30
2023-03-10T16:06:39.064Z,0.40
2023-03-10T16:09:09.189Z,0.27
2023-03-10T16:11:36.923Z,0.20
2023-03-10T16:14:04.999Z,0.57
2023-03-10T16:16:32.772Z,0.40
2023-03-10T16:19:00.393Z,0.20
2023-03-10T16:21:28.266Z,0.40
2023-03-10T16:23:55.985Z,0.30
2023-03-10T16:26:25.696Z,0.57
2023-03-10T16:28:55.296Z,0.30
2023-03-10T16:31:24.559Z,0.27
2023-03-10T16:33:52.306Z,0.57
2023-03-10T16:36:22.112Z,0.33
2023-03-10T16:38:50.434Z,0.73
2023-03-10T16:41:18.666Z,0.77
2023-03-10T16:43:47.842Z,0.40
2023-03-10T16:46:20.057Z,0.20
2023-03-10T16:48:49.142Z,0.30
2023-03-10T16:51:24.138Z,0.40
2023-03-10T16:53:52.692Z,0.30
2023-03-10T16:56:20.637Z,0.27
2023-03-10T16:58:49.645Z,0.27
2023-03-10T17:01:17.274Z,0.20
2023-03-10T17:03:44.931Z,0.30
2023-03-10T17:06:14.324Z,0.33
2023-03-10T17:08:42.678Z,0.70
2023-03-10T17:11:18.843Z,0.30
2023-03-10T17:13:47.374Z,0.23
2023-03-10T17:16:17.248Z,0.30
2023-03-10T17:18:45.447Z,0.50
2023-03-10T17:21:15.656Z,0.23
2023-03-10T17:23:44.039Z,0.53
2023-03-10T17:26:12.418Z,0.33
2023-03-10T17:28:41.434Z,0.50
2023-03-10T17:31:10.319Z,0.30
2023-03-10T17:33:39.936Z,0.20
2023-03-10T17:36:10.864Z,0.20
2023-03-10T17:38:38.901Z,0.20
2023-03-10T17:41:08.079Z,0.30
2023-03-10T17:43:36.064Z,0.23
2023-03-10T17:46:06.163Z,0.43
2023-03-10T17:48:35.349Z,0.53
2023-03-10T17:51:04.807Z,0.63
2023-03-10T17:53:32.923Z,0.40
2023-03-10T17:56:04.203Z,0.30
2023-03-10T17:58:31.881Z,0.60
2023-03-10T18:00:59.463Z,0.30
2023-03-10T18:03:27.215Z,0.30
2023-03-10T18:05:54.798Z,0.33
2023-03-10T18:08:23.852Z,0.67
2023-03-10T18:11:00.874Z,0.33
2023-03-10T18:13:28.537Z,0.50
2023-03-10T18:15:56.349Z,0.30
2023-03-10T18:18:24.883Z,0.30
2023-03-10T18:20:52.554Z,0.37
2023-03-10T18:23:23.154Z,1.00
2023-03-10T18:25:51.716Z,0.40
2023-03-10T18:28:20.696Z,0.67
2023-03-10T18:30:51.895Z,0.47
2023-03-10T18:33:19.911Z,0.30
2023-03-10T18:35:48.702Z,0.37
2023-03-10T18:38:17.999Z,0.70
2023-03-10T18:40:46.932Z,0.40
2023-03-10T18:43:14.520Z,0.60
2023-03-10T18:45:43.985Z,0.50
2023-03-10T18:48:11.586Z,0.90
2023-03-10T18:50:39.150Z,0.60
2023-03-10T18:53:06.739Z,1.13
2023-03-10T18:55:34.304Z,0.60
2023-03-10T18:58:03.350Z,0.60
2023-03-10T19:00:30.954Z,0.60
2023-03-10T19:02:58.574Z,0.70
2023-03-10T19:05:26.444Z,0.70
2023-03-10T19:07:54.064Z,0.80
2023-03-10T19:10:22.280Z,0.80
2023-03-10T19:12:49.955Z,1.30
2023-03-10T19:15:19.013Z,1.07
2023-03-10T19:17:46.751Z,1.10
2023-03-10T19:20:15.977Z,0.80
2023-03-10T19:22:45.317Z,1.17
2023-03-10T19:25:13.033Z,1.67
2023-03-10T19:27:40.756Z,0.87
2023-03-10T19:30:12.024Z,1.40
2023-03-10T19:32:41.415Z,1.13
2023-03-10T19:35:09.804Z,0.87
2023-03-10T19:37:38.908Z,1.33
2023-03-10T19:40:08.580Z,1.00
2023-03-10T19:42:38.833Z,1.20
2023-03-10T19:45:08.198Z,70.13
2023-03-10T19:47:35.794Z,117.50
2023-03-10T19:50:05.902Z,52.97
2023-03-10T19:52:33.626Z,19.73
2023-03-10T19:55:01.714Z,13.07
2023-03-10T19:57:30.082Z,8.27
2023-03-10T19:59:58.223Z,4.30
2023-03-10T20:02:26.218Z,4.20
2023-03-10T20:04:53.988Z,3.90
2023-03-10T20:07:22.917Z,3.53
2023-03-10T20:09:50.536Z,4.57
2023-03-10T20:12:18.142Z,4.70
2023-03-10T20:14:45.703Z,3.23
2023-03-10T20:17:13.250Z,4.37
2023-03-10T20:19:41.367Z,2.70
2023-03-10T20:22:08.986Z,4.30
2023-03-10T20:24:37.919Z,3.40
2023-03-10T20:27:05.780Z,4.37
2023-03-10T20:29:33.630Z,1.80
2023-03-10T20:32:01.358Z,2.10
2023-03-10T20:34:28.981Z,3.23
2023-03-10T20:36:56.611Z,2.37
2023-03-10T20:39:25.256Z,1.27
2023-03-10T20:41:54.193Z,2.27
2023-03-10T20:44:21.764Z,1.77
2023-03-10T20:46:49.406Z,1.67
2023-03-10T20:49:17.047Z,2.23
2023-03-10T20:51:44.634Z,2.23
2023-03-10T20:54:12.287Z,3.23
2023-03-10T20:56:40.022Z,1.63
2023-03-10T20:59:09.016Z,2.43
2023-03-10T21:01:39.778Z,2.67
2023-03-10T21:04:07.658Z,2.57
2023-03-10T21:06:35.865Z,1.73
2023-03-10T21:09:05.850Z,2.17
2023-03-10T21:11:34.166Z,1.20
2023-03-10T21:14:01.837Z,2.10
2023-03-10T21:16:30.967Z,1.30
2023-03-10T21:18:58.657Z,2.07
2023-03-10T21:21:26.235Z,2.37
2023-03-10T21:23:53.884Z,2.83
2023-03-10T21:26:22.363Z,3.73
2023-03-10T21:28:50.233Z,1.53
2023-03-10T21:31:18.191Z,1.90
2023-03-10T21:33:47.258Z,1.13
2023-03-10T21:36:16.238Z,0.77
2023-03-10T21:38:43.964Z,2.03
2023-03-10T21:41:13.196Z,1.17
2023-03-10T21:43:40.806Z,1.67
2023-03-10T21:46:08.479Z,0.63
2023-03-10T21:48:36.144Z,1.20
2023-03-10T21:51:06.168Z,0.60
2023-03-10T21:53:33.813Z,0.90
2023-03-10T21:56:01.431Z,1.00
2023-03-10T21:58:29.031Z,1.63
2023-03-10T22:00:56.907Z,0.80
2023-03-10T22:03:24.531Z,1.53
2023-03-10T22:05:52.146Z,0.60
2023-03-10T22:08:21.898Z,0.73
2023-03-10T22:10:49.605Z,1.27
2023-03-10T22:13:17.252Z,1.47
2023-03-10T22:15:44.985Z,1.00
2023-03-10T22:18:12.614Z,0.97
2023-03-10T22:20:40.253Z,2.27
2023-03-10T22:23:07.940Z,2.53
2023-03-10T22:25:37.128Z,1.07
2023-03-10T22:28:05.383Z,1.43
2023-03-10T22:30:33.003Z,2.53
2023-03-10T22:33:00.702Z,3.03
2023-03-10T22:35:28.332Z,1.70
2023-03-10T22:37:56.001Z,0.80
2023-03-10T22:40:25.412Z,4.00
2023-03-10T22:42:55.500Z,3.57
2023-03-10T22:45:25.321Z,1.17
2023-03-10T22:47:54.945Z,2.63
2023-03-10T22:50:25.611Z,0.73
2023-03-10T22:52:53.412Z,1.27
2023-03-10T22:55:23.552Z,0.73
2023-03-10T22:57:51.189Z,1.60
2023-03-10T23:00:22.586Z,2.03
2023-03-10T23:02:52.140Z,1.37
2023-03-10T23:05:20.347Z,0.90
2023-03-10T23:07:48.947Z,2.07
2023-03-10T23:10:20.693Z,1.90
2023-03-10T23:12:49.190Z,1.53
2023-03-10T23:15:24.870Z,1.37
2023-03-10T23:17:55.641Z,1.77
2023-03-10T23:20:26.810Z,2.40
2023-03-10T23:22:55.617Z,1.03
2023-03-10T23:25:29.124Z,1.77
2023-03-10T23:27:57.192Z,3.03
2023-03-10T23:30:24.913Z,1.00
2023-03-10T23:32:54.395Z,2.60
2023-03-10T23:35:24.196Z,1.27
2023-03-10T23:37:52.484Z,1.10
2023-03-10T23:40:22.074Z,2.30
2023-03-10T23:42:49.938Z,1.50
2023-03-10T23:45:19.292Z,2.10
2023-03-10T23:47:47.575Z,2.33
2023-03-10T23:50:19.455Z,1.20
2023-03-10T23:52:47.949Z,1.50
2023-03-10T23:55:17.881Z,1.20
2023-03-10T23:57:45.723Z,1.40
